Nome Airport
PAOM : now visible

Airfield :











YOU CAN JOIN US ON...

 
LOGIN :

Register | Disclaimer

   EN    FR    IT 

 









Legend :    VFR   Marginal VFR   IFR   Intensive IFR   Very Intensive IFR
Visi :
Ceiling :
>= 8 km
>= 3000ft
5 to 8 km
1000 to 3000 ft
1500m to 5 km
500 to 1000 ft
800 to 1500m
200 to 500 ft
< 800m
< 200 ft
Symbols :   Thunderstorms  Fog  Heavy snow  Heavy precipitations  Wind > 20 kt






- Airport Elevation : 37 ft
- IATA code : OME


PAOM - Nome

CURRENT METAR :
  • 241753Z 09011KT 10SM OVC100 M14/M18 A3038 RMK AO2 SLP289 60001 T11441183 11122 21150 51010

EXPIRED METARs :
  • 241653Z 08010KT 10SM OVC100 M13/M17 A3037 RMK AO2 SNE06 SLP286 P0000 T11331172
  • 241553Z AUTO 08009KT 9SM -SN OVC100 M15/M18 A3037 RMK AO2 SLP284 P0000 T11501178 TSNO

TAF PAOM
Valid from the 24 at 18:00 until the 25 at 18:00 UTC


241720Z 2418/2518 09010KT P6SM -SN BKN070
FM250000 12010KT P6SM FEW100



MET'MAP, your aeronautical weather chart ! - Copyright ORBIFLY December 2007 - Disclaimer

ORBIFLY MET'MAP TEAM :

Programming & Development : Alexandra Zaïnal
Concept & original design : Baudouin d'Aumeries
Assistance for programming : Marc-Olivier Méhu
Technical & hardware support : Manuel Goepfert

Contact : metmap@orbifly.com




SOURCES & CREDITS :

   NOAA       Earth
Advisory